createdAt,value
2017-09-29T00:00:52.065Z,99.90
2017-09-29T00:03:19.558Z,99.90
2017-09-29T00:05:47.037Z,99.90
2017-09-29T00:08:14.509Z,99.90
2017-09-29T00:10:42.021Z,99.90
2017-09-29T00:13:09.497Z,99.90
2017-09-29T00:15:36.969Z,99.90
2017-09-29T00:18:04.462Z,99.90
2017-09-29T00:20:32.705Z,99.90
2017-09-29T00:23:00.183Z,99.90
2017-09-29T00:25:28.442Z,99.90
2017-09-29T00:27:55.922Z,99.90
2017-09-29T00:30:24.494Z,99.90
2017-09-29T00:32:52.741Z,99.90
2017-09-29T00:35:20.225Z,99.90
2017-09-29T00:37:48.489Z,99.90
2017-09-29T00:40:15.969Z,99.90
2017-09-29T00:42:44.209Z,99.90
2017-09-29T00:45:11.709Z,99.90
2017-09-29T00:47:39.612Z,99.90
2017-09-29T00:50:07.090Z,99.90
2017-09-29T00:52:34.589Z,99.90
2017-09-29T00:55:02.829Z,99.90
2017-09-29T00:57:30.309Z,99.90
2017-09-29T00:59:58.573Z,99.90
2017-09-29T01:02:26.411Z,99.90
2017-09-29T01:04:53.886Z,99.90
2017-09-29T01:07:21.383Z,99.90
2017-09-29T01:09:48.854Z,99.90
2017-09-29T01:12:16.333Z,99.90
2017-09-29T01:14:43.834Z,99.90
2017-09-29T01:17:12.077Z,99.90
2017-09-29T01:19:39.553Z,99.90
2017-09-29T01:22:07.049Z,99.90
2017-09-29T01:24:34.522Z,99.90
2017-09-29T01:27:02.007Z,99.90
2017-09-29T01:29:29.506Z,99.90
2017-09-29T01:31:57.748Z,99.90
2017-09-29T01:34:25.474Z,99.90
2017-09-29T01:36:52.953Z,99.90
2017-09-29T01:39:20.429Z,99.90
2017-09-29T01:41:47.929Z,99.90
2017-09-29T01:44:15.417Z,99.90
2017-09-29T01:46:42.893Z,99.90
2017-09-29T01:49:10.401Z,99.90
2017-09-29T01:51:37.877Z,99.90
2017-09-29T01:54:05.353Z,99.90
2017-09-29T01:56:32.857Z,99.90
2017-09-29T01:59:01.102Z,99.90
2017-09-29T02:01:28.594Z,99.90
2017-09-29T02:03:56.093Z,99.90
2017-09-29T02:06:23.570Z,99.90
2017-09-29T02:08:51.065Z,99.90
2017-09-29T02:11:19.334Z,99.90
2017-09-29T02:13:47.573Z,99.90
2017-09-29T02:16:15.061Z,99.90
2017-09-29T02:18:43.349Z,99.90
2017-09-29T02:21:11.586Z,99.90
2017-09-29T02:23:39.185Z,99.90
2017-09-29T02:26:07.450Z,99.90
2017-09-29T02:28:35.702Z,99.90
2017-09-29T02:31:03.183Z,99.90
2017-09-29T02:33:31.455Z,99.90
2017-09-29T02:35:59.738Z,99.90
2017-09-29T02:38:27.985Z,99.90
2017-09-29T02:40:55.481Z,99.90
2017-09-29T02:43:22.967Z,99.90
2017-09-29T02:45:50.450Z,99.90
2017-09-29T02:48:17.946Z,99.90
2017-09-29T02:50:46.186Z,99.90
2017-09-29T02:53:13.666Z,99.90
2017-09-29T02:55:41.184Z,99.90
2017-09-29T02:58:09.150Z,99.90
2017-09-29T03:00:37.859Z,99.90
2017-09-29T03:03:08.669Z,99.90
2017-09-29T03:05:38.410Z,99.90
2017-09-29T03:08:05.885Z,99.90
2017-09-29T03:10:34.148Z,99.90
2017-09-29T03:13:01.628Z,99.90
2017-09-29T03:15:29.134Z,99.90
2017-09-29T03:17:56.633Z,99.90
2017-09-29T03:20:24.887Z,99.90
2017-09-29T03:22:52.368Z,99.90
2017-09-29T03:25:20.633Z,99.90
2017-09-29T03:27:48.885Z,99.90
2017-09-29T03:30:16.364Z,99.90
2017-09-29T03:32:44.638Z,99.90
2017-09-29T03:35:12.129Z,99.90
2017-09-29T03:37:39.609Z,99.90
2017-09-29T03:40:07.113Z,99.90
2017-09-29T03:42:35.361Z,99.90
2017-09-29T03:45:02.837Z,99.90
2017-09-29T03:47:30.658Z,99.90
2017-09-29T03:49:58.702Z,99.90
2017-09-29T03:52:27.378Z,99.90
2017-09-29T03:54:58.377Z,99.90
2017-09-29T03:57:27.280Z,99.90
2017-09-29T03:59:54.757Z,99.90
2017-09-29T04:02:23.281Z,99.90
2017-09-29T04:04:50.761Z,99.90
2017-09-29T04:07:18.247Z,99.90
2017-09-29T04:09:45.754Z,99.90
2017-09-29T04:12:13.241Z,99.90
2017-09-29T04:14:41.078Z,99.90
2017-09-29T04:17:08.580Z,99.90
2017-09-29T04:19:36.053Z,99.90
2017-09-29T04:22:04.301Z,99.90
2017-09-29T04:24:31.800Z,99.90
2017-09-29T04:26:59.274Z,99.90
2017-09-29T04:29:26.793Z,99.90
2017-09-29T04:31:55.054Z,99.90
2017-09-29T04:34:22.533Z,99.90
2017-09-29T04:36:50.773Z,99.90
2017-09-29T04:39:18.269Z,99.90
2017-09-29T04:41:46.509Z,99.90
2017-09-29T04:44:13.985Z,99.90
2017-09-29T04:46:41.482Z,99.90
2017-09-29T04:49:08.958Z,99.90
2017-09-29T04:51:36.437Z,99.90
2017-09-29T04:54:03.929Z,99.90
2017-09-29T04:56:32.172Z,99.90
2017-09-29T04:58:59.686Z,99.90
2017-09-29T05:01:27.180Z,99.90
2017-09-29T05:03:54.662Z,99.90
2017-09-29T05:06:22.137Z,99.90
2017-09-29T05:08:50.405Z,99.90
2017-09-29T05:11:18.651Z,99.90
2017-09-29T05:13:46.129Z,99.90
2017-09-29T05:16:14.393Z,99.90
2017-09-29T05:18:41.870Z,99.90
2017-09-29T05:21:10.109Z,99.90
2017-09-29T05:23:37.604Z,99.90
2017-09-29T05:26:05.850Z,99.90
2017-09-29T05:28:34.205Z,99.90
2017-09-29T05:31:01.701Z,99.90
2017-09-29T05:33:29.177Z,99.90
2017-09-29T05:35:57.417Z,99.90
2017-09-29T05:38:24.973Z,99.90
2017-09-29T05:40:52.464Z,99.90
2017-09-29T05:43:20.705Z,99.90
2017-09-29T05:45:48.206Z,99.90
2017-09-29T05:48:15.689Z,99.90
2017-09-29T05:50:43.169Z,99.90
2017-09-29T05:53:10.674Z,99.90
2017-09-29T05:55:38.917Z,99.90
2017-09-29T05:58:06.389Z,99.90
2017-09-29T06:00:34.686Z,99.90
2017-09-29T06:03:05.528Z,99.90
2017-09-29T06:05:33.020Z,99.90
2017-09-29T06:08:00.525Z,99.90
2017-09-29T06:10:28.821Z,99.90
2017-09-29T06:12:56.301Z,99.90
2017-09-29T06:15:23.802Z,99.90
2017-09-29T06:17:51.309Z,99.90
2017-09-29T06:20:18.794Z,99.90
2017-09-29T06:22:46.293Z,99.90
2017-09-29T06:25:14.537Z,99.90
2017-09-29T06:27:42.019Z,99.90
2017-09-29T06:30:10.290Z,99.90
2017-09-29T06:32:38.537Z,99.90
2017-09-29T06:35:06.014Z,99.90
2017-09-29T06:37:33.510Z,99.90
2017-09-29T06:40:00.996Z,99.90
2017-09-29T06:42:28.478Z,99.90
2017-09-29T06:44:55.982Z,99.90
2017-09-29T06:47:23.462Z,99.90
2017-09-29T06:49:51.221Z,99.90
2017-09-29T06:52:18.771Z,99.90
2017-09-29T06:54:46.261Z,99.90
2017-09-29T06:57:13.745Z,99.90
2017-09-29T06:59:42.273Z,99.90
2017-09-29T07:02:09.749Z,99.90
2017-09-29T07:04:37.233Z,99.90
2017-09-29T07:07:04.731Z,99.90
2017-09-29T07:09:32.221Z,99.90
2017-09-29T07:11:59.715Z,99.90
2017-09-29T07:14:27.988Z,99.90
2017-09-29T07:16:56.251Z,99.90
2017-09-29T07:19:23.734Z,99.90
2017-09-29T07:21:51.997Z,99.90
2017-09-29T07:24:20.278Z,99.90
2017-09-29T07:26:49.037Z,99.90
2017-09-29T07:29:23.968Z,99.90
2017-09-29T07:31:51.882Z,99.90
2017-09-29T07:34:19.370Z,99.90
2017-09-29T07:36:46.873Z,99.90
2017-09-29T07:39:15.125Z,99.90
2017-09-29T07:41:42.598Z,99.90
2017-09-29T07:44:10.105Z,99.90
2017-09-29T07:46:37.581Z,99.90
2017-09-29T07:49:05.065Z,99.90
2017-09-29T07:51:32.565Z,99.90
2017-09-29T07:54:00.051Z,99.90
2017-09-29T07:56:27.539Z,99.90
2017-09-29T07:58:55.819Z,99.90
2017-09-29T08:01:24.069Z,99.90
2017-09-29T08:03:51.545Z,99.90
2017-09-29T08:06:19.825Z,99.90
2017-09-29T08:08:47.305Z,99.90
2017-09-29T08:11:15.566Z,99.90
2017-09-29T08:13:43.834Z,99.90
2017-09-29T08:16:11.313Z,99.90
2017-09-29T08:18:39.557Z,99.90
2017-09-29T08:21:07.091Z,99.90
2017-09-29T08:23:34.571Z,99.90
2017-09-29T08:26:02.113Z,99.90
2017-09-29T08:28:29.614Z,99.90
2017-09-29T08:30:57.857Z,99.90
2017-09-29T08:33:35.017Z,99.90
2017-09-29T08:36:02.501Z,99.90
2017-09-29T08:38:30.066Z,99.90
2017-09-29T08:40:57.576Z,99.90
2017-09-29T08:43:25.058Z,99.90
2017-09-29T08:45:52.543Z,99.90
2017-09-29T08:48:20.046Z,99.90
2017-09-29T08:50:47.822Z,99.90
2017-09-29T08:53:15.310Z,99.90
2017-09-29T08:55:42.814Z,99.90
2017-09-29T08:58:10.294Z,99.90
2017-09-29T09:00:37.766Z,99.90
2017-09-29T09:03:05.267Z,99.90
2017-09-29T09:05:33.513Z,99.90
2017-09-29T09:08:00.989Z,99.90
2017-09-29T09:10:28.492Z,99.90
2017-09-29T09:12:55.973Z,99.90
2017-09-29T09:15:23.450Z,99.90
2017-09-29T09:17:51.177Z,99.90
2017-09-29T09:20:18.662Z,99.90
2017-09-29T09:22:46.138Z,99.90
2017-09-29T09:25:14.402Z,99.90
2017-09-29T09:27:41.878Z,99.90
2017-09-29T09:30:10.122Z,99.90
2017-09-29T09:32:37.618Z,99.90
2017-09-29T09:35:05.887Z,99.90
2017-09-29T09:37:34.138Z,99.90
2017-09-29T09:40:01.634Z,99.90
2017-09-29T09:42:29.110Z,99.90
2017-09-29T09:44:56.589Z,99.90
2017-09-29T09:47:24.091Z,99.90
2017-09-29T09:49:52.337Z,99.90
2017-09-29T09:52:19.822Z,99.90
2017-09-29T09:54:48.086Z,99.90
2017-09-29T09:57:15.783Z,99.90
2017-09-29T09:59:43.308Z,99.90
2017-09-29T10:02:10.805Z,99.90
2017-09-29T10:04:38.582Z,99.90
2017-09-29T10:07:06.058Z,99.90
2017-09-29T10:09:33.564Z,99.90
2017-09-29T10:12:01.051Z,99.90
2017-09-29T10:14:28.526Z,99.90
2017-09-29T10:16:56.038Z,99.90
2017-09-29T10:19:24.551Z,99.90
2017-09-29T10:21:52.039Z,99.90
2017-09-29T10:24:19.535Z,99.90
2017-09-29T10:26:47.773Z,99.90
2017-09-29T10:29:15.278Z,99.90
2017-09-29T10:31:42.790Z,99.90
2017-09-29T10:34:10.265Z,99.90
2017-09-29T10:36:37.745Z,99.90
2017-09-29T10:39:05.253Z,99.90
2017-09-29T10:41:32.733Z,99.90
2017-09-29T10:44:00.213Z,99.90
2017-09-29T10:46:28.485Z,99.90
2017-09-29T10:48:56.853Z,98.80
2017-09-29T10:51:25.103Z,99.60
2017-09-29T10:53:52.602Z,99.50
2017-09-29T10:56:20.078Z,99.30
2017-09-29T10:58:47.554Z,98.10
2017-09-29T11:01:15.049Z,98.40
2017-09-29T11:03:42.522Z,96.80
2017-09-29T11:06:10.792Z,97.40
2017-09-29T11:08:39.073Z,97.30
2017-09-29T11:11:07.315Z,96.70
2017-09-29T11:13:34.791Z,96.60
2017-09-29T11:16:02.291Z,97.40
2017-09-29T11:18:29.821Z,97.20
2017-09-29T11:20:58.066Z,97.20
2017-09-29T11:23:25.602Z,97.20
2017-09-29T11:25:53.092Z,96.30
2017-09-29T11:28:20.574Z,97.00
2017-09-29T11:30:48.837Z,95.60
2017-09-29T11:33:17.078Z,95.20
2017-09-29T11:35:44.657Z,95.00
2017-09-29T11:38:12.934Z,95.80
2017-09-29T11:40:40.410Z,95.80
2017-09-29T11:43:07.898Z,95.70
2017-09-29T11:45:35.390Z,95.30
2017-09-29T11:48:03.646Z,91.70
2017-09-29T11:50:31.130Z,91.80
2017-09-29T11:52:58.630Z,91.80
2017-09-29T11:55:26.115Z,91.90
2017-09-29T11:57:53.663Z,90.80
2017-09-29T12:00:21.157Z,84.00
2017-09-29T12:02:48.650Z,85.20
2017-09-29T12:05:16.890Z,85.00
2017-09-29T12:07:44.406Z,85.10
2017-09-29T12:10:11.902Z,89.30
2017-09-29T12:12:39.386Z,91.40
2017-09-29T12:15:07.646Z,90.20
2017-09-29T12:17:35.135Z,90.20
2017-09-29T12:20:02.613Z,89.20
2017-09-29T12:22:30.115Z,88.40
2017-09-29T12:24:57.593Z,90.10
2017-09-29T12:27:25.833Z,90.60
2017-09-29T12:29:53.329Z,90.50
2017-09-29T12:32:21.574Z,91.70
2017-09-29T12:34:49.050Z,91.70
2017-09-29T12:37:16.562Z,91.60
2017-09-29T12:39:44.256Z,91.80
2017-09-29T12:42:11.734Z,91.40
2017-09-29T12:44:39.994Z,94.30
2017-09-29T12:47:07.466Z,94.30
2017-09-29T12:49:35.709Z,95.50
2017-09-29T12:52:03.202Z,95.50
2017-09-29T12:54:31.449Z,96.70
2017-09-29T12:56:58.927Z,96.70
2017-09-29T12:59:26.445Z,97.80
2017-09-29T13:01:53.922Z,97.70
2017-09-29T13:04:21.394Z,99.20
2017-09-29T13:06:48.934Z,99.00
2017-09-29T13:09:16.410Z,98.40
2017-09-29T13:11:43.905Z,97.80
2017-09-29T13:14:11.484Z,97.60
2017-09-29T13:16:38.960Z,99.30
2017-09-29T13:19:06.433Z,99.90
2017-09-29T13:21:33.945Z,99.90
2017-09-29T13:24:01.420Z,99.90
2017-09-29T13:26:28.893Z,99.90
2017-09-29T13:28:56.386Z,99.90
2017-09-29T13:31:24.646Z,99.90
2017-09-29T13:33:52.126Z,99.90
2017-09-29T13:36:19.619Z,99.90
2017-09-29T13:38:47.095Z,99.90
2017-09-29T13:41:14.570Z,99.90
2017-09-29T13:43:42.061Z,99.90
2017-09-29T13:46:09.541Z,99.90
2017-09-29T13:48:37.012Z,99.90
2017-09-29T13:51:04.528Z,99.90
2017-09-29T13:53:32.001Z,99.90
2017-09-29T13:55:59.474Z,99.90
2017-09-29T13:58:26.993Z,99.90
2017-09-29T14:03:48.733Z,99.90
2017-09-29T14:06:16.970Z,99.90
2017-09-29T14:08:44.473Z,99.90
2017-09-29T14:11:12.749Z,99.90
2017-09-29T14:13:40.993Z,99.90
2017-09-29T14:16:08.464Z,99.90
2017-09-29T14:18:36.738Z,99.80
2017-09-29T14:21:04.977Z,99.90
2017-09-29T14:23:32.452Z,99.90
2017-09-29T14:25:59.953Z,99.90
2017-09-29T14:28:27.429Z,99.90
2017-09-29T14:30:54.904Z,99.90
2017-09-29T14:33:22.397Z,99.90
2017-09-29T14:35:49.866Z,99.90
2017-09-29T14:38:18.106Z,99.90
2017-09-29T14:40:45.597Z,99.90
2017-09-29T14:43:13.846Z,99.50
2017-09-29T14:45:41.325Z,99.50
2017-09-29T14:48:09.591Z,99.90
2017-09-29T14:50:37.066Z,99.90
2017-09-29T14:53:05.305Z,99.90
2017-09-29T14:55:32.810Z,99.90
2017-09-29T14:58:00.289Z,99.90
2017-09-29T15:00:27.769Z,99.80
2017-09-29T15:02:55.257Z,99.90
2017-09-29T15:05:23.496Z,98.80
2017-09-29T15:07:50.969Z,98.80
2017-09-29T15:10:18.466Z,99.00
2017-09-29T15:12:45.449Z,99.90
2017-09-29T15:15:12.930Z,99.90
2017-09-29T15:17:40.438Z,99.50
2017-09-29T15:20:07.917Z,98.20
2017-09-29T15:22:35.393Z,97.60
2017-09-29T15:25:02.900Z,97.90
2017-09-29T15:27:30.418Z,98.50
2017-09-29T15:29:57.897Z,98.70
2017-09-29T15:32:26.153Z,98.90
2017-09-29T15:34:53.630Z,98.80
2017-09-29T15:37:21.865Z,98.30
2017-09-29T15:39:49.356Z,98.30
2017-09-29T15:42:16.833Z,98.50
2017-09-29T15:44:45.073Z,98.00
2017-09-29T15:47:12.568Z,98.00
2017-09-29T15:49:40.043Z,98.10
2017-09-29T15:52:07.528Z,98.20
2017-09-29T15:54:35.233Z,97.90
2017-09-29T15:57:03.473Z,97.90
2017-09-29T15:59:30.954Z,97.90
2017-09-29T16:01:58.477Z,98.40
2017-09-29T16:04:25.972Z,98.10
2017-09-29T16:06:54.221Z,99.20
2017-09-29T16:09:21.748Z,98.90
2017-09-29T16:11:49.821Z,98.90
2017-09-29T16:14:17.356Z,99.40
2017-09-29T16:16:44.845Z,99.50
2017-09-29T16:19:12.418Z,99.80
2017-09-29T16:21:39.898Z,99.90
2017-09-29T16:24:07.590Z,99.90
2017-09-29T16:26:35.066Z,99.90
2017-09-29T16:29:02.541Z,99.90
2017-09-29T16:31:30.034Z,99.90
2017-09-29T16:33:57.511Z,99.90
2017-09-29T16:36:25.853Z,99.90
2017-09-29T16:38:54.149Z,99.90
2017-09-29T16:41:21.625Z,99.90
2017-09-29T16:43:49.860Z,99.90
2017-09-29T16:46:17.353Z,99.90
2017-09-29T16:48:45.594Z,99.90
2017-09-29T16:51:13.078Z,99.90
2017-09-29T16:53:41.337Z,99.90
2017-09-29T16:56:08.806Z,99.90
2017-09-29T16:58:37.047Z,99.90
2017-09-29T17:01:04.537Z,99.90
2017-09-29T17:03:32.773Z,99.90
2017-09-29T17:06:00.249Z,99.90
2017-09-29T17:08:27.890Z,99.90
2017-09-29T17:10:55.374Z,99.90
2017-09-29T17:13:22.862Z,99.90
2017-09-29T17:15:50.488Z,99.90
2017-09-29T17:18:18.754Z,99.90
2017-09-29T17:20:46.245Z,99.90
2017-09-29T17:23:14.506Z,99.90
2017-09-29T17:25:42.221Z,99.90
2017-09-29T17:28:09.700Z,99.90
2017-09-29T17:30:37.960Z,99.90
2017-09-29T17:33:05.434Z,99.90
2017-09-29T17:35:32.923Z,99.90
2017-09-29T17:38:01.189Z,99.90
2017-09-29T17:40:28.885Z,99.90
2017-09-29T17:42:56.379Z,99.90
2017-09-29T17:45:23.869Z,99.90
2017-09-29T17:47:51.353Z,99.90
2017-09-29T17:50:18.830Z,99.90
2017-09-29T17:52:46.328Z,99.90
2017-09-29T17:55:13.810Z,99.90
2017-09-29T17:57:42.057Z,99.90
2017-09-29T18:00:09.557Z,99.90
2017-09-29T18:02:37.037Z,99.90
2017-09-29T18:05:04.522Z,99.90
2017-09-29T18:07:32.026Z,99.90
2017-09-29T18:10:00.262Z,99.90
2017-09-29T18:12:27.753Z,99.90
2017-09-29T18:14:56.021Z,99.90
2017-09-29T18:17:24.266Z,99.90
2017-09-29T18:19:51.747Z,99.90
2017-09-29T18:22:19.249Z,99.90
2017-09-29T18:24:46.774Z,99.90
2017-09-29T18:27:15.022Z,99.90
2017-09-29T18:29:42.521Z,99.90
2017-09-29T18:32:10.009Z,99.90
2017-09-29T18:34:37.486Z,99.90
2017-09-29T18:37:05.973Z,99.90
2017-09-29T18:39:33.458Z,99.90
2017-09-29T18:42:02.210Z,99.90
2017-09-29T18:57:55.180Z,99.90
2017-09-29T19:00:23.449Z,99.90
2017-09-29T19:02:50.932Z,99.90
2017-09-29T19:05:18.430Z,99.90
2017-09-29T19:07:45.928Z,99.90
2017-09-29T19:10:14.185Z,99.90
2017-09-29T19:12:42.468Z,99.90
2017-09-29T19:15:09.961Z,99.90
2017-09-29T19:17:37.461Z,99.90
2017-09-29T19:20:04.965Z,99.90
2017-09-29T19:22:32.517Z,99.90
2017-09-29T19:25:00.021Z,99.90
2017-09-29T19:27:27.525Z,99.90
2017-09-29T19:29:55.777Z,99.90
2017-09-29T19:32:23.291Z,99.90
2017-09-29T19:34:50.796Z,99.90
2017-09-29T19:37:19.098Z,99.90
2017-09-29T19:39:46.703Z,99.90
2017-09-29T19:42:14.214Z,99.90
2017-09-29T19:44:42.464Z,99.90
2017-09-29T19:47:10.005Z,99.90
2017-09-29T19:49:37.507Z,99.90
2017-09-29T19:52:05.754Z,99.90
2017-09-29T19:54:33.229Z,99.90
2017-09-29T19:57:01.498Z,99.90
2017-09-29T19:59:29.026Z,99.90
2017-09-29T20:01:56.597Z,99.90
2017-09-29T20:04:24.149Z,99.90
2017-09-29T20:06:51.683Z,99.90
2017-09-29T20:09:19.239Z,99.90
2017-09-29T20:11:46.893Z,99.90
2017-09-29T20:14:15.039Z,99.90
2017-09-29T20:16:42.613Z,99.90
2017-09-29T20:19:12.241Z,99.90
2017-09-29T20:21:39.721Z,99.90
2017-09-29T20:24:07.201Z,99.90
2017-09-29T20:26:34.701Z,99.90
2017-09-29T20:29:02.181Z,99.90
2017-09-29T20:31:29.664Z,99.90
2017-09-29T20:33:57.168Z,99.90
2017-09-29T20:36:24.645Z,99.90
2017-09-29T20:38:52.125Z,99.90
2017-09-29T20:41:19.631Z,99.90
2017-09-29T20:43:47.122Z,99.90
2017-09-29T20:46:14.597Z,99.90
2017-09-29T20:48:42.093Z,99.90
2017-09-29T20:51:10.340Z,99.90
2017-09-29T20:53:37.829Z,99.90
2017-09-29T20:56:06.105Z,99.90
2017-09-29T20:58:34.353Z,99.90
2017-09-29T21:01:01.853Z,99.90
2017-09-29T21:03:29.365Z,99.90
2017-09-29T21:05:56.845Z,99.90
2017-09-29T21:08:25.089Z,99.90
2017-09-29T21:10:52.599Z,99.90
2017-09-29T21:13:20.092Z,99.90
2017-09-29T21:15:47.578Z,99.90
2017-09-29T21:18:15.082Z,99.90
2017-09-29T21:20:42.561Z,99.90
2017-09-29T21:23:10.038Z,99.90
2017-09-29T21:25:37.537Z,99.90
2017-09-29T21:28:05.018Z,99.90
2017-09-29T21:30:32.497Z,99.90
2017-09-29T21:33:00.001Z,99.90
2017-09-29T21:35:28.245Z,99.90
2017-09-29T21:37:55.725Z,99.90
2017-09-29T21:40:23.982Z,99.90
2017-09-29T21:42:51.709Z,99.90
2017-09-29T21:45:19.189Z,99.90
2017-09-29T21:47:46.688Z,99.90
2017-09-29T21:50:14.925Z,99.90
2017-09-29T21:52:42.405Z,99.90
2017-09-29T21:55:10.669Z,99.90
2017-09-29T21:57:38.141Z,99.90
2017-09-29T22:00:06.537Z,99.90
2017-09-29T22:02:34.035Z,99.90
2017-09-29T22:05:01.513Z,99.90
2017-09-29T22:07:28.989Z,99.90
2017-09-29T22:09:57.253Z,99.90
2017-09-29T22:12:24.728Z,99.90
2017-09-29T22:14:52.976Z,99.90
2017-09-29T22:17:20.468Z,99.90
2017-09-29T22:19:48.708Z,99.90
2017-09-29T22:22:16.249Z,99.90
2017-09-29T22:24:43.749Z,99.90
2017-09-29T22:27:11.997Z,99.90
2017-09-29T22:29:39.479Z,99.90
2017-09-29T22:32:07.737Z,99.90
2017-09-29T22:34:35.213Z,99.90
2017-09-29T22:37:03.457Z,99.90
2017-09-29T22:39:30.954Z,99.90
2017-09-29T22:41:59.202Z,99.90
2017-09-29T22:44:26.769Z,99.90
2017-09-29T22:46:54.272Z,99.90
2017-09-29T22:49:21.749Z,99.90
2017-09-29T22:51:49.221Z,99.90
2017-09-29T22:54:16.730Z,99.90
2017-09-29T22:56:44.200Z,99.90
2017-09-29T22:59:11.681Z,99.90
2017-09-29T23:01:39.177Z,99.90
2017-09-29T23:04:07.417Z,99.90
2017-09-29T23:06:34.894Z,99.90
2017-09-29T23:09:02.389Z,99.90
2017-09-29T23:11:29.861Z,99.90
2017-09-29T23:13:57.341Z,99.90
2017-09-29T23:16:24.837Z,99.90
2017-09-29T23:18:53.086Z,99.90
2017-09-29T23:21:20.565Z,99.90
2017-09-29T23:23:48.835Z,99.90
2017-09-29T23:26:16.309Z,99.90
2017-09-29T23:28:44.554Z,99.90
2017-09-29T23:31:12.053Z,99.90
2017-09-29T23:33:39.531Z,99.90
2017-09-29T23:36:07.009Z,99.90
2017-09-29T23:38:34.557Z,99.90
2017-09-29T23:41:02.042Z,99.90
2017-09-29T23:43:29.513Z,99.90
2017-09-29T23:45:57.014Z,99.90
2017-09-29T23:48:24.497Z,99.90
2017-09-29T23:50:52.745Z,99.90
2017-09-29T23:53:20.244Z,99.90
2017-09-29T23:55:47.722Z,99.90
2017-09-29T23:58:15.196Z,99.90
